sensor_id;sensor_type;location;lat;lon;timestamp;temperature;humidity
530;DHT22;251;48.704;9.210;2024-03-07T00:00:02;6.20;92.30
530;DHT22;251;48.704;9.210;2024-03-07T00:02:37;6.10;92.60
530;DHT22;251;48.704;9.210;2024-03-07T00:05:04;6.40;93.50
530;DHT22;251;48.704;9.210;2024-03-07T00:07:31;6.10;93.20
530;DHT22;251;48.704;9.210;2024-03-07T00:09:58;6.10;94.00
530;DHT22;251;48.704;9.210;2024-03-07T00:12:26;6.10;94.60
530;DHT22;251;48.704;9.210;2024-03-07T00:14:53;5.90;95.20
530;DHT22;251;48.704;9.210;2024-03-07T00:17:20;5.80;95.80
530;DHT22;251;48.704;9.210;2024-03-07T00:19:48;5.90;95.80
530;DHT22;251;48.704;9.210;2024-03-07T00:22:15;5.70;95.70
530;DHT22;251;48.704;9.210;2024-03-07T00:24:42;5.70;96.60
530;DHT22;251;48.704;9.210;2024-03-07T00:27:09;5.90;96.90
530;DHT22;251;48.704;9.210;2024-03-07T00:29:37;5.70;97.30
530;DHT22;251;48.704;9.210;2024-03-07T00:32:04;5.70;97.10
530;DHT22;251;48.704;9.210;2024-03-07T00:34:31;5.80;97.40
530;DHT22;251;48.704;9.210;2024-03-07T00:36:57;5.80;97.60
530;DHT22;251;48.704;9.210;2024-03-07T00:39:24;5.60;96.90
530;DHT22;251;48.704;9.210;2024-03-07T00:41:51;5.70;97.20
530;DHT22;251;48.704;9.210;2024-03-07T00:44:18;5.70;95.50
530;DHT22;251;48.704;9.210;2024-03-07T00:46:46;5.50;91.60
530;DHT22;251;48.704;9.210;2024-03-07T00:49:13;5.60;84.10
530;DHT22;251;48.704;9.210;2024-03-07T00:51:40;5.80;75.30
530;DHT22;251;48.704;9.210;2024-03-07T00:54:07;5.60;67.80
530;DHT22;251;48.704;9.210;2024-03-07T00:56:33;5.40;64.60
530;DHT22;251;48.704;9.210;2024-03-07T00:59:01;5.60;64.30
530;DHT22;251;48.704;9.210;2024-03-07T01:01:28;5.60;65.00
530;DHT22;251;48.704;9.210;2024-03-07T01:03:58;5.60;63.70
530;DHT22;251;48.704;9.210;2024-03-07T01:06:25;5.60;63.10
530;DHT22;251;48.704;9.210;2024-03-07T01:08:52;5.40;65.20
530;DHT22;251;48.704;9.210;2024-03-07T01:11:19;5.40;65.90
530;DHT22;251;48.704;9.210;2024-03-07T01:13:46;5.30;61.90
530;DHT22;251;48.704;9.210;2024-03-07T01:16:13;5.30;60.20
530;DHT22;251;48.704;9.210;2024-03-07T01:18:39;5.10;60.20
530;DHT22;251;48.704;9.210;2024-03-07T01:21:07;5.20;59.70
530;DHT22;251;48.704;9.210;2024-03-07T01:23:35;5.20;58.40
530;DHT22;251;48.704;9.210;2024-03-07T01:26:02;4.90;59.60
530;DHT22;251;48.704;9.210;2024-03-07T01:28:29;5.20;59.80
530;DHT22;251;48.704;9.210;2024-03-07T01:30:57;5.00;56.60
530;DHT22;251;48.704;9.210;2024-03-07T01:33:24;5.00;59.20
530;DHT22;251;48.704;9.210;2024-03-07T01:35:51;4.80;59.40
530;DHT22;251;48.704;9.210;2024-03-07T01:38:19;4.60;59.20
530;DHT22;251;48.704;9.210;2024-03-07T01:40:46;4.80;59.50
530;DHT22;251;48.704;9.210;2024-03-07T01:43:14;4.60;59.30
530;DHT22;251;48.704;9.210;2024-03-07T01:45:41;4.30;60.70
530;DHT22;251;48.704;9.210;2024-03-07T01:48:09;4.50;60.60
530;DHT22;251;48.704;9.210;2024-03-07T01:50:36;4.30;60.20
530;DHT22;251;48.704;9.210;2024-03-07T01:53:04;4.20;61.10
530;DHT22;251;48.704;9.210;2024-03-07T01:55:33;4.10;62.10
530;DHT22;251;48.704;9.210;2024-03-07T01:58:02;4.00;63.60
530;DHT22;251;48.704;9.210;2024-03-07T02:00:31;4.30;66.90
530;DHT22;251;48.704;9.210;2024-03-07T02:02:58;4.00;72.20
530;DHT22;251;48.704;9.210;2024-03-07T02:05:24;3.90;73.90
530;DHT22;251;48.704;9.210;2024-03-07T02:07:51;4.00;72.80
530;DHT22;251;48.704;9.210;2024-03-07T02:10:18;4.10;69.60
530;DHT22;251;48.704;9.210;2024-03-07T02:12:46;4.20;75.10
530;DHT22;251;48.704;9.210;2024-03-07T02:15:13;3.80;72.10
530;DHT22;251;48.704;9.210;2024-03-07T02:17:40;3.80;72.90
530;DHT22;251;48.704;9.210;2024-03-07T02:20:09;3.80;71.90
530;DHT22;251;48.704;9.210;2024-03-07T02:22:40;3.70;69.20
530;DHT22;251;48.704;9.210;2024-03-07T02:25:07;3.70;73.40
530;DHT22;251;48.704;9.210;2024-03-07T02:27:35;3.80;79.60
530;DHT22;251;48.704;9.210;2024-03-07T02:30:03;3.60;82.20
530;DHT22;251;48.704;9.210;2024-03-07T02:32:34;3.50;85.10
530;DHT22;251;48.704;9.210;2024-03-07T02:35:03;3.70;88.20
530;DHT22;251;48.704;9.210;2024-03-07T02:37:30;3.50;89.90
530;DHT22;251;48.704;9.210;2024-03-07T02:39:58;3.40;83.80
530;DHT22;251;48.704;9.210;2024-03-07T02:42:25;3.40;79.30
530;DHT22;251;48.704;9.210;2024-03-07T02:44:52;3.50;80.80
530;DHT22;251;48.704;9.210;2024-03-07T02:47:20;3.20;79.40
530;DHT22;251;48.704;9.210;2024-03-07T02:49:49;3.10;74.40
530;DHT22;251;48.704;9.210;2024-03-07T02:52:16;3.20;73.30
530;DHT22;251;48.704;9.210;2024-03-07T02:54:42;3.00;72.90
530;DHT22;251;48.704;9.210;2024-03-07T02:57:11;3.10;75.40
530;DHT22;251;48.704;9.210;2024-03-07T02:59:38;3.10;73.80
530;DHT22;251;48.704;9.210;2024-03-07T03:02:05;3.00;72.10
530;DHT22;251;48.704;9.210;2024-03-07T03:04:31;3.20;69.60
530;DHT22;251;48.704;9.210;2024-03-07T03:06:58;3.30;70.40
530;DHT22;251;48.704;9.210;2024-03-07T03:09:25;3.00;72.30
530;DHT22;251;48.704;9.210;2024-03-07T03:11:53;2.90;79.20
530;DHT22;251;48.704;9.210;2024-03-07T03:14:22;3.00;86.40
530;DHT22;251;48.704;9.210;2024-03-07T03:16:49;2.70;90.80
530;DHT22;251;48.704;9.210;2024-03-07T03:19:15;2.80;89.30
530;DHT22;251;48.704;9.210;2024-03-07T03:21:42;2.60;85.70
530;DHT22;251;48.704;9.210;2024-03-07T03:24:09;2.70;85.70
530;DHT22;251;48.704;9.210;2024-03-07T03:26:36;2.60;85.30
530;DHT22;251;48.704;9.210;2024-03-07T03:29:02;2.50;89.70
530;DHT22;251;48.704;9.210;2024-03-07T03:31:31;2.60;92.50
530;DHT22;251;48.704;9.210;2024-03-07T03:33:58;2.30;94.10
530;DHT22;251;48.704;9.210;2024-03-07T03:36:24;2.50;96.10
530;DHT22;251;48.704;9.210;2024-03-07T03:38:51;2.60;97.30
530;DHT22;251;48.704;9.210;2024-03-07T03:41:18;2.40;98.50
530;DHT22;251;48.704;9.210;2024-03-07T03:43:45;2.60;99.90
530;DHT22;251;48.704;9.210;2024-03-07T03:46:13;2.40;99.50
530;DHT22;251;48.704;9.210;2024-03-07T03:48:41;2.20;98.10
530;DHT22;251;48.704;9.210;2024-03-07T03:51:08;2.30;99.90
530;DHT22;251;48.704;9.210;2024-03-07T03:53:35;2.10;99.90
530;DHT22;251;48.704;9.210;2024-03-07T03:56:03;2.20;99.90
530;DHT22;251;48.704;9.210;2024-03-07T03:58:31;2.00;99.90
530;DHT22;251;48.704;9.210;2024-03-07T04:00:59;2.20;99.90
530;DHT22;251;48.704;9.210;2024-03-07T04:03:26;2.00;99.90
530;DHT22;251;48.704;9.210;2024-03-07T04:05:54;2.10;99.90
530;DHT22;251;48.704;9.210;2024-03-07T04:08:21;1.90;99.90
530;DHT22;251;48.704;9.210;2024-03-07T04:10:48;1.70;99.90
530;DHT22;251;48.704;9.210;2024-03-07T04:13:15;2.00;99.90
530;DHT22;251;48.704;9.210;2024-03-07T04:15:42;1.80;99.90
530;DHT22;251;48.704;9.210;2024-03-07T04:18:08;1.70;99.90
530;DHT22;251;48.704;9.210;2024-03-07T04:20:36;1.80;99.90
530;DHT22;251;48.704;9.210;2024-03-07T04:23:04;1.90;99.90
530;DHT22;251;48.704;9.210;2024-03-07T04:25:31;1.80;99.90
530;DHT22;251;48.704;9.210;2024-03-07T04:27:58;1.70;99.90
530;DHT22;251;48.704;9.210;2024-03-07T04:30:25;1.60;99.90
530;DHT22;251;48.704;9.210;2024-03-07T04:32:52;1.80;99.90
530;DHT22;251;48.704;9.210;2024-03-07T04:35:19;1.60;99.90
530;DHT22;251;48.704;9.210;2024-03-07T04:37:46;1.70;99.90
530;DHT22;251;48.704;9.210;2024-03-07T04:40:14;1.50;99.90
530;DHT22;251;48.704;9.210;2024-03-07T04:42:42;1.60;99.90
530;DHT22;251;48.704;9.210;2024-03-07T04:45:09;1.50;99.90
530;DHT22;251;48.704;9.210;2024-03-07T04:47:38;1.60;99.90
530;DHT22;251;48.704;9.210;2024-03-07T04:50:06;1.70;99.90
530;DHT22;251;48.704;9.210;2024-03-07T04:52:33;1.80;99.90
530;DHT22;251;48.704;9.210;2024-03-07T04:55:01;1.50;99.90
530;DHT22;251;48.704;9.210;2024-03-07T04:57:29;1.60;99.90
530;DHT22;251;48.704;9.210;2024-03-07T04:59:56;1.80;99.60
530;DHT22;251;48.704;9.210;2024-03-07T05:02:23;1.70;99.90
530;DHT22;251;48.704;9.210;2024-03-07T05:04:50;1.60;99.90
530;DHT22;251;48.704;9.210;2024-03-07T05:07:17;1.80;99.90
530;DHT22;251;48.704;9.210;2024-03-07T05:09:44;1.50;99.90
530;DHT22;251;48.704;9.210;2024-03-07T05:12:11;1.70;99.90
530;DHT22;251;48.704;9.210;2024-03-07T05:14:40;1.60;99.90
530;DHT22;251;48.704;9.210;2024-03-07T05:17:07;1.60;99.90
530;DHT22;251;48.704;9.210;2024-03-07T05:19:35;1.50;99.90
530;DHT22;251;48.704;9.210;2024-03-07T05:22:02;1.40;99.90
530;DHT22;251;48.704;9.210;2024-03-07T05:24:31;1.40;99.90
530;DHT22;251;48.704;9.210;2024-03-07T05:26:58;1.20;99.90
530;DHT22;251;48.704;9.210;2024-03-07T05:29:25;1.40;99.90
530;DHT22;251;48.704;9.210;2024-03-07T05:31:53;1.20;99.90
530;DHT22;251;48.704;9.210;2024-03-07T05:34:20;1.00;99.90
530;DHT22;251;48.704;9.210;2024-03-07T05:36:49;1.00;99.90
530;DHT22;251;48.704;9.210;2024-03-07T05:39:17;1.20;99.90
530;DHT22;251;48.704;9.210;2024-03-07T05:41:45;1.20;99.90
530;DHT22;251;48.704;9.210;2024-03-07T05:44:12;1.10;99.90
530;DHT22;251;48.704;9.210;2024-03-07T05:46:39;1.00;99.90
530;DHT22;251;48.704;9.210;2024-03-07T05:49:13;1.10;99.90
530;DHT22;251;48.704;9.210;2024-03-07T05:51:40;0.90;99.90
530;DHT22;251;48.704;9.210;2024-03-07T05:54:10;1.00;99.90
530;DHT22;251;48.704;9.210;2024-03-07T05:56:38;0.90;99.90
530;DHT22;251;48.704;9.210;2024-03-07T05:59:06;0.80;99.90
530;DHT22;251;48.704;9.210;2024-03-07T06:01:35;0.90;99.90
530;DHT22;251;48.704;9.210;2024-03-07T06:04:02;0.80;99.90
530;DHT22;251;48.704;9.210;2024-03-07T06:06:33;0.80;99.90
530;DHT22;251;48.704;9.210;2024-03-07T06:09:01;0.90;99.90
530;DHT22;251;48.704;9.210;2024-03-07T06:11:33;0.70;99.90
530;DHT22;251;48.704;9.210;2024-03-07T06:13:59;0.70;99.90
530;DHT22;251;48.704;9.210;2024-03-07T06:16:29;0.90;99.90
530;DHT22;251;48.704;9.210;2024-03-07T06:18:58;0.90;99.90
530;DHT22;251;48.704;9.210;2024-03-07T06:21:25;0.80;99.90
530;DHT22;251;48.704;9.210;2024-03-07T06:23:53;0.70;99.90
530;DHT22;251;48.704;9.210;2024-03-07T06:26:25;0.70;99.90
530;DHT22;251;48.704;9.210;2024-03-07T06:29:03;0.80;99.90
530;DHT22;251;48.704;9.210;2024-03-07T06:31:30;0.70;99.90
530;DHT22;251;48.704;9.210;2024-03-07T06:33:57;0.70;99.90
530;DHT22;251;48.704;9.210;2024-03-07T06:36:24;0.90;99.90
530;DHT22;251;48.704;9.210;2024-03-07T06:38:52;0.80;99.90
530;DHT22;251;48.704;9.210;2024-03-07T06:41:19;0.70;99.90
530;DHT22;251;48.704;9.210;2024-03-07T06:43:46;0.90;99.90
530;DHT22;251;48.704;9.210;2024-03-07T06:46:15;0.90;99.90
530;DHT22;251;48.704;9.210;2024-03-07T06:48:42;0.80;99.90
530;DHT22;251;48.704;9.210;2024-03-07T06:51:09;1.00;99.90
530;DHT22;251;48.704;9.210;2024-03-07T06:53:36;1.00;99.90
530;DHT22;251;48.704;9.210;2024-03-07T06:56:06;1.10;99.90
530;DHT22;251;48.704;9.210;2024-03-07T06:58:32;1.20;99.90
530;DHT22;251;48.704;9.210;2024-03-07T07:00:59;1.40;99.90
530;DHT22;251;48.704;9.210;2024-03-07T07:03:27;1.40;99.90
530;DHT22;251;48.704;9.210;2024-03-07T07:05:54;1.60;99.90
530;DHT22;251;48.704;9.210;2024-03-07T07:08:21;1.50;99.90
530;DHT22;251;48.704;9.210;2024-03-07T07:10:49;1.70;99.90
530;DHT22;251;48.704;9.210;2024-03-07T07:13:17;1.90;99.90
530;DHT22;251;48.704;9.210;2024-03-07T07:15:43;2.00;99.90
530;DHT22;251;48.704;9.210;2024-03-07T07:18:10;2.20;99.90
530;DHT22;251;48.704;9.210;2024-03-07T07:20:39;2.30;99.90
530;DHT22;251;48.704;9.210;2024-03-07T07:23:05;2.40;97.20
530;DHT22;251;48.704;9.210;2024-03-07T07:25:32;2.50;95.40
530;DHT22;251;48.704;9.210;2024-03-07T07:28:00;2.60;92.70
530;DHT22;251;48.704;9.210;2024-03-07T07:30:28;2.80;91.00
530;DHT22;251;48.704;9.210;2024-03-07T07:32:54;2.90;87.10
530;DHT22;251;48.704;9.210;2024-03-07T07:35:22;3.00;85.60
530;DHT22;251;48.704;9.210;2024-03-07T07:37:50;3.10;78.70
530;DHT22;251;48.704;9.210;2024-03-07T07:40:20;3.20;80.10
530;DHT22;251;48.704;9.210;2024-03-07T07:42:49;3.30;70.10
530;DHT22;251;48.704;9.210;2024-03-07T07:45:18;3.40;67.10
530;DHT22;251;48.704;9.210;2024-03-07T07:47:48;3.50;64.80
530;DHT22;251;48.704;9.210;2024-03-07T07:50:16;3.60;63.60
530;DHT22;251;48.704;9.210;2024-03-07T07:52:44;3.60;55.00
530;DHT22;251;48.704;9.210;2024-03-07T07:55:13;3.70;55.70
530;DHT22;251;48.704;9.210;2024-03-07T07:57:42;3.80;53.00
530;DHT22;251;48.704;9.210;2024-03-07T08:00:11;3.90;51.90
530;DHT22;251;48.704;9.210;2024-03-07T08:02:49;3.90;52.80
530;DHT22;251;48.704;9.210;2024-03-07T08:05:17;4.00;51.80
530;DHT22;251;48.704;9.210;2024-03-07T08:07:44;4.00;48.30
530;DHT22;251;48.704;9.210;2024-03-07T08:10:11;3.90;48.40
530;DHT22;251;48.704;9.210;2024-03-07T08:12:38;3.90;48.10
530;DHT22;251;48.704;9.210;2024-03-07T08:15:09;3.90;52.70
530;DHT22;251;48.704;9.210;2024-03-07T08:17:40;3.90;51.30
530;DHT22;251;48.704;9.210;2024-03-07T08:20:11;3.90;51.80
530;DHT22;251;48.704;9.210;2024-03-07T08:22:38;4.10;52.30
530;DHT22;251;48.704;9.210;2024-03-07T08:25:07;4.20;47.80
530;DHT22;251;48.704;9.210;2024-03-07T08:27:35;4.20;46.60
530;DHT22;251;48.704;9.210;2024-03-07T08:30:03;4.30;46.00
530;DHT22;251;48.704;9.210;2024-03-07T08:32:31;4.40;45.80
530;DHT22;251;48.704;9.210;2024-03-07T08:34:59;4.50;45.20
530;DHT22;251;48.704;9.210;2024-03-07T08:37:34;4.60;43.70
530;DHT22;251;48.704;9.210;2024-03-07T08:40:01;4.70;44.20
530;DHT22;251;48.704;9.210;2024-03-07T08:42:30;4.70;42.70
530;DHT22;251;48.704;9.210;2024-03-07T08:44:58;4.90;43.90
530;DHT22;251;48.704;9.210;2024-03-07T08:47:24;4.90;40.30
530;DHT22;251;48.704;9.210;2024-03-07T08:49:51;4.90;39.50
530;DHT22;251;48.704;9.210;2024-03-07T08:52:18;4.90;38.90
530;DHT22;251;48.704;9.210;2024-03-07T08:54:46;5.00;37.80
530;DHT22;251;48.704;9.210;2024-03-07T08:57:13;5.00;40.60
530;DHT22;251;48.704;9.210;2024-03-07T08:59:42;5.10;38.50
530;DHT22;251;48.704;9.210;2024-03-07T09:02:09;5.10;38.10
530;DHT22;251;48.704;9.210;2024-03-07T09:04:37;5.10;36.40
530;DHT22;251;48.704;9.210;2024-03-07T09:07:04;5.20;38.50
530;DHT22;251;48.704;9.210;2024-03-07T09:09:31;5.20;37.90
530;DHT22;251;48.704;9.210;2024-03-07T09:12:00;5.20;36.90
530;DHT22;251;48.704;9.210;2024-03-07T09:14:27;5.30;36.30
530;DHT22;251;48.704;9.210;2024-03-07T09:16:54;5.30;35.70
530;DHT22;251;48.704;9.210;2024-03-07T09:19:20;5.40;36.30
530;DHT22;251;48.704;9.210;2024-03-07T09:21:50;5.50;37.40
530;DHT22;251;48.704;9.210;2024-03-07T09:24:18;5.50;34.60
530;DHT22;251;48.704;9.210;2024-03-07T09:26:47;5.60;35.20
530;DHT22;251;48.704;9.210;2024-03-07T09:29:15;5.60;33.80
530;DHT22;251;48.704;9.210;2024-03-07T09:31:43;5.80;37.50
530;DHT22;251;48.704;9.210;2024-03-07T09:34:10;6.00;36.10
530;DHT22;251;48.704;9.210;2024-03-07T09:36:38;6.10;34.70
530;DHT22;251;48.704;9.210;2024-03-07T09:39:07;6.30;33.50
530;DHT22;251;48.704;9.210;2024-03-07T09:41:34;6.40;31.10
530;DHT22;251;48.704;9.210;2024-03-07T09:44:01;6.50;32.00
530;DHT22;251;48.704;9.210;2024-03-07T09:46:30;6.60;31.70
530;DHT22;251;48.704;9.210;2024-03-07T09:48:58;6.70;30.20
530;DHT22;251;48.704;9.210;2024-03-07T09:51:24;6.80;30.10
530;DHT22;251;48.704;9.210;2024-03-07T09:53:53;6.80;30.50
530;DHT22;251;48.704;9.210;2024-03-07T09:56:23;6.90;30.50
530;DHT22;251;48.704;9.210;2024-03-07T09:58:52;7.00;30.30
530;DHT22;251;48.704;9.210;2024-03-07T10:01:21;7.10;30.20
530;DHT22;251;48.704;9.210;2024-03-07T10:03:50;7.20;29.80
530;DHT22;251;48.704;9.210;2024-03-07T10:06:19;7.20;28.40
530;DHT22;251;48.704;9.210;2024-03-07T10:08:47;7.10;27.60
530;DHT22;251;48.704;9.210;2024-03-07T10:11:14;7.20;28.10
530;DHT22;251;48.704;9.210;2024-03-07T10:13:41;7.40;28.50
530;DHT22;251;48.704;9.210;2024-03-07T10:16:08;7.50;28.40
530;DHT22;251;48.704;9.210;2024-03-07T10:18:41;7.70;28.00
530;DHT22;251;48.704;9.210;2024-03-07T10:21:12;7.70;25.50
530;DHT22;251;48.704;9.210;2024-03-07T10:23:39;7.70;25.30
530;DHT22;251;48.704;9.210;2024-03-07T10:26:06;7.80;26.70
530;DHT22;251;48.704;9.210;2024-03-07T10:28:32;8.00;27.80
530;DHT22;251;48.704;9.210;2024-03-07T10:31:00;8.10;26.40
530;DHT22;251;48.704;9.210;2024-03-07T10:33:29;8.30;25.70
530;DHT22;251;48.704;9.210;2024-03-07T10:36:00;8.40;23.90
530;DHT22;251;48.704;9.210;2024-03-07T10:38:28;8.40;22.80
530;DHT22;251;48.704;9.210;2024-03-07T10:40:55;8.60;22.60
530;DHT22;251;48.704;9.210;2024-03-07T10:43:22;8.80;22.20
530;DHT22;251;48.704;9.210;2024-03-07T10:45:51;9.00;20.50
530;DHT22;251;48.704;9.210;2024-03-07T10:48:25;9.10;20.80
530;DHT22;251;48.704;9.210;2024-03-07T10:51:00;8.90;18.80
530;DHT22;251;48.704;9.210;2024-03-07T10:53:39;8.70;18.40
530;DHT22;251;48.704;9.210;2024-03-07T10:56:18;8.40;19.70
530;DHT22;251;48.704;9.210;2024-03-07T10:58:57;8.30;19.80
530;DHT22;251;48.704;9.210;2024-03-07T11:01:26;8.20;20.20
530;DHT22;251;48.704;9.210;2024-03-07T11:03:53;8.00;18.70
530;DHT22;251;48.704;9.210;2024-03-07T11:06:23;7.90;20.30
530;DHT22;251;48.704;9.210;2024-03-07T11:08:52;7.90;20.90
530;DHT22;251;48.704;9.210;2024-03-07T11:11:20;8.00;21.20
530;DHT22;251;48.704;9.210;2024-03-07T11:13:49;7.90;20.70
530;DHT22;251;48.704;9.210;2024-03-07T11:16:16;8.00;22.20
530;DHT22;251;48.704;9.210;2024-03-07T11:19:17;8.20;23.00
530;DHT22;251;48.704;9.210;2024-03-07T11:21:44;8.30;22.70
530;DHT22;251;48.704;9.210;2024-03-07T11:24:24;8.80;23.60
530;DHT22;251;48.704;9.210;2024-03-07T11:26:52;9.20;20.80
530;DHT22;251;48.704;9.210;2024-03-07T11:29:39;9.40;19.20
530;DHT22;251;48.704;9.210;2024-03-07T11:32:08;9.60;18.70
530;DHT22;251;48.704;9.210;2024-03-07T11:34:37;9.50;17.30
530;DHT22;251;48.704;9.210;2024-03-07T11:37:07;9.50;18.80
530;DHT22;251;48.704;9.210;2024-03-07T11:39:45;9.60;18.30
530;DHT22;251;48.704;9.210;2024-03-07T11:42:20;9.70;19.30
530;DHT22;251;48.704;9.210;2024-03-07T11:44:49;9.70;18.30
530;DHT22;251;48.704;9.210;2024-03-07T11:47:16;9.60;17.70
530;DHT22;251;48.704;9.210;2024-03-07T11:49:44;9.60;18.40
530;DHT22;251;48.704;9.210;2024-03-07T11:52:14;9.50;18.80
530;DHT22;251;48.704;9.210;2024-03-07T11:54:43;9.50;18.90
530;DHT22;251;48.704;9.210;2024-03-07T11:57:12;9.50;19.50
530;DHT22;251;48.704;9.210;2024-03-07T11:59:40;9.30;18.10
530;DHT22;251;48.704;9.210;2024-03-07T12:02:11;9.20;19.30
530;DHT22;251;48.704;9.210;2024-03-07T12:04:39;9.10;21.00
530;DHT22;251;48.704;9.210;2024-03-07T12:07:07;9.10;20.10
530;DHT22;251;48.704;9.210;2024-03-07T12:09:36;9.20;21.20
530;DHT22;251;48.704;9.210;2024-03-07T12:12:06;9.30;20.10
530;DHT22;251;48.704;9.210;2024-03-07T12:14:32;9.40;19.20
530;DHT22;251;48.704;9.210;2024-03-07T12:17:00;9.40;20.10
530;DHT22;251;48.704;9.210;2024-03-07T12:19:27;9.30;18.20
530;DHT22;251;48.704;9.210;2024-03-07T12:22:19;9.30;19.00
530;DHT22;251;48.704;9.210;2024-03-07T12:24:48;9.30;18.00
530;DHT22;251;48.704;9.210;2024-03-07T12:27:16;9.30;18.10
530;DHT22;251;48.704;9.210;2024-03-07T12:29:43;9.30;18.60
530;DHT22;251;48.704;9.210;2024-03-07T12:32:13;9.20;19.10
530;DHT22;251;48.704;9.210;2024-03-07T12:34:42;9.20;18.50
530;DHT22;251;48.704;9.210;2024-03-07T12:37:11;9.30;18.60
530;DHT22;251;48.704;9.210;2024-03-07T12:39:41;9.40;18.10
530;DHT22;251;48.704;9.210;2024-03-07T12:42:13;9.40;17.70
530;DHT22;251;48.704;9.210;2024-03-07T12:44:42;9.40;17.40
530;DHT22;251;48.704;9.210;2024-03-07T12:47:11;9.60;18.30
530;DHT22;251;48.704;9.210;2024-03-07T12:49:39;9.50;18.80
530;DHT22;251;48.704;9.210;2024-03-07T12:52:06;9.50;18.20
530;DHT22;251;48.704;9.210;2024-03-07T12:54:34;9.50;17.90
530;DHT22;251;48.704;9.210;2024-03-07T12:57:03;9.40;18.10
530;DHT22;251;48.704;9.210;2024-03-07T12:59:31;9.20;18.00
530;DHT22;251;48.704;9.210;2024-03-07T13:01:59;9.10;18.40
530;DHT22;251;48.704;9.210;2024-03-07T13:04:26;9.10;19.90
530;DHT22;251;48.704;9.210;2024-03-07T13:06:53;9.10;20.10
530;DHT22;251;48.704;9.210;2024-03-07T13:09:19;9.00;20.10
530;DHT22;251;48.704;9.210;2024-03-07T13:11:52;9.00;19.30
530;DHT22;251;48.704;9.210;2024-03-07T13:14:19;9.00;18.60
530;DHT22;251;48.704;9.210;2024-03-07T13:16:46;9.00;17.80
530;DHT22;251;48.704;9.210;2024-03-07T13:19:14;9.00;17.90
530;DHT22;251;48.704;9.210;2024-03-07T13:21:46;9.00;18.50
530;DHT22;251;48.704;9.210;2024-03-07T13:24:14;9.10;19.00
530;DHT22;251;48.704;9.210;2024-03-07T13:26:42;9.10;18.30
530;DHT22;251;48.704;9.210;2024-03-07T13:29:09;9.10;18.00
530;DHT22;251;48.704;9.210;2024-03-07T13:31:36;9.00;18.30
530;DHT22;251;48.704;9.210;2024-03-07T13:34:03;8.90;19.10
530;DHT22;251;48.704;9.210;2024-03-07T13:36:31;8.90;20.00
530;DHT22;251;48.704;9.210;2024-03-07T13:38:58;8.80;20.00
530;DHT22;251;48.704;9.210;2024-03-07T13:41:24;8.90;20.00
530;DHT22;251;48.704;9.210;2024-03-07T13:43:54;8.90;19.60
530;DHT22;251;48.704;9.210;2024-03-07T13:46:20;8.90;20.00
530;DHT22;251;48.704;9.210;2024-03-07T13:48:47;8.90;19.40
530;DHT22;251;48.704;9.210;2024-03-07T13:51:14;8.80;20.10
530;DHT22;251;48.704;9.210;2024-03-07T13:53:43;8.80;19.50
530;DHT22;251;48.704;9.210;2024-03-07T13:56:44;8.70;20.10
530;DHT22;251;48.704;9.210;2024-03-07T14:02:30;8.60;20.10
530;DHT22;251;48.704;9.210;2024-03-07T14:05:46;8.60;20.30
530;DHT22;251;48.704;9.210;2024-03-07T14:08:33;8.60;20.80
530;DHT22;251;48.704;9.210;2024-03-07T14:11:27;8.50;20.90
530;DHT22;251;48.704;9.210;2024-03-07T14:14:17;8.50;21.20
530;DHT22;251;48.704;9.210;2024-03-07T14:20:20;8.70;21.80
530;DHT22;251;48.704;9.210;2024-03-07T14:23:06;8.70;20.40
530;DHT22;251;48.704;9.210;2024-03-07T14:26:05;8.80;21.30
530;DHT22;251;48.704;9.210;2024-03-07T14:28:51;8.90;20.10
530;DHT22;251;48.704;9.210;2024-03-07T14:31:20;9.00;19.70
530;DHT22;251;48.704;9.210;2024-03-07T14:33:50;9.00;19.80
530;DHT22;251;48.704;9.210;2024-03-07T14:36:33;9.10;19.70
530;DHT22;251;48.704;9.210;2024-03-07T14:39:02;9.10;19.40
530;DHT22;251;48.704;9.210;2024-03-07T14:41:44;9.10;20.60
530;DHT22;251;48.704;9.210;2024-03-07T14:44:14;9.10;20.00
530;DHT22;251;48.704;9.210;2024-03-07T14:46:41;9.00;18.90
530;DHT22;251;48.704;9.210;2024-03-07T14:49:09;9.00;19.50
530;DHT22;251;48.704;9.210;2024-03-07T14:51:38;8.90;19.40
530;DHT22;251;48.704;9.210;2024-03-07T14:54:04;8.80;19.40
530;DHT22;251;48.704;9.210;2024-03-07T14:56:33;8.80;20.10
530;DHT22;251;48.704;9.210;2024-03-07T14:59:01;8.80;19.70
530;DHT22;251;48.704;9.210;2024-03-07T15:01:29;8.80;19.70
530;DHT22;251;48.704;9.210;2024-03-07T15:03:59;8.90;20.70
530;DHT22;251;48.704;9.210;2024-03-07T15:06:26;8.90;19.50
530;DHT22;251;48.704;9.210;2024-03-07T15:08:57;8.90;19.50
530;DHT22;251;48.704;9.210;2024-03-07T15:11:29;8.80;19.30
530;DHT22;251;48.704;9.210;2024-03-07T15:13:58;8.90;19.70
530;DHT22;251;48.704;9.210;2024-03-07T15:16:26;8.90;20.50
530;DHT22;251;48.704;9.210;2024-03-07T15:18:55;8.90;19.20
530;DHT22;251;48.704;9.210;2024-03-07T15:21:22;8.90;19.30
530;DHT22;251;48.704;9.210;2024-03-07T15:23:48;8.80;18.30
530;DHT22;251;48.704;9.210;2024-03-07T15:26:15;8.80;18.10
530;DHT22;251;48.704;9.210;2024-03-07T15:28:43;8.90;18.40
530;DHT22;251;48.704;9.210;2024-03-07T15:31:10;8.90;19.00
530;DHT22;251;48.704;9.210;2024-03-07T15:33:44;9.00;19.00
530;DHT22;251;48.704;9.210;2024-03-07T15:36:12;9.10;19.20
530;DHT22;251;48.704;9.210;2024-03-07T15:38:39;9.10;19.80
530;DHT22;251;48.704;9.210;2024-03-07T15:41:05;9.10;18.70
530;DHT22;251;48.704;9.210;2024-03-07T15:43:34;9.00;18.80
530;DHT22;251;48.704;9.210;2024-03-07T15:46:01;9.00;18.70
530;DHT22;251;48.704;9.210;2024-03-07T15:48:29;8.90;18.30
530;DHT22;251;48.704;9.210;2024-03-07T15:50:56;8.80;17.80
530;DHT22;251;48.704;9.210;2024-03-07T15:53:26;8.70;18.40
530;DHT22;251;48.704;9.210;2024-03-07T15:55:53;8.60;18.60
530;DHT22;251;48.704;9.210;2024-03-07T15:58:19;8.50;19.60
530;DHT22;251;48.704;9.210;2024-03-07T16:00:46;8.40;18.80
530;DHT22;251;48.704;9.210;2024-03-07T16:03:14;8.30;19.50
530;DHT22;251;48.704;9.210;2024-03-07T16:05:42;8.20;19.40
530;DHT22;251;48.704;9.210;2024-03-07T16:08:10;8.10;19.40
530;DHT22;251;48.704;9.210;2024-03-07T16:10:39;8.00;20.30
530;DHT22;251;48.704;9.210;2024-03-07T16:13:08;8.00;20.70
530;DHT22;251;48.704;9.210;2024-03-07T16:15:35;7.90;20.00
530;DHT22;251;48.704;9.210;2024-03-07T16:18:03;7.90;19.90
530;DHT22;251;48.704;9.210;2024-03-07T16:20:32;7.80;20.80
530;DHT22;251;48.704;9.210;2024-03-07T16:22:59;7.80;20.30
530;DHT22;251;48.704;9.210;2024-03-07T16:25:26;7.70;19.60
530;DHT22;251;48.704;9.210;2024-03-07T16:27:54;7.70;20.70
530;DHT22;251;48.704;9.210;2024-03-07T16:30:24;7.60;20.80
530;DHT22;251;48.704;9.210;2024-03-07T16:32:52;7.60;20.70
530;DHT22;251;48.704;9.210;2024-03-07T16:35:24;7.50;21.30
530;DHT22;251;48.704;9.210;2024-03-07T16:37:51;7.50;21.90
530;DHT22;251;48.704;9.210;2024-03-07T16:40:20;7.50;21.80
530;DHT22;251;48.704;9.210;2024-03-07T16:42:48;7.50;21.80
530;DHT22;251;48.704;9.210;2024-03-07T16:45:20;7.40;22.20
530;DHT22;251;48.704;9.210;2024-03-07T16:47:50;7.40;22.00
530;DHT22;251;48.704;9.210;2024-03-07T16:50:18;7.30;21.50
530;DHT22;251;48.704;9.210;2024-03-07T16:52:46;7.30;21.90
530;DHT22;251;48.704;9.210;2024-03-07T16:55:14;7.30;21.80
530;DHT22;251;48.704;9.210;2024-03-07T16:57:45;7.30;21.90
530;DHT22;251;48.704;9.210;2024-03-07T17:00:15;7.30;21.80
530;DHT22;251;48.704;9.210;2024-03-07T17:02:52;7.20;22.30
530;DHT22;251;48.704;9.210;2024-03-07T17:05:19;7.20;23.10
530;DHT22;251;48.704;9.210;2024-03-07T17:07:46;7.20;23.90